sensor_id;sensor_type;location;lat;lon;timestamp;pressure;altitude;pressure_sealevel;temperature;humidity
65329;BME280;51941;52.210;5.158;2022-11-20T00:00:15;101305.44;;;-2.60;79.69
65329;BME280;51941;52.210;5.158;2022-11-20T00:02:42;101338.38;;;-2.41;79.89
65329;BME280;51941;52.210;5.158;2022-11-20T00:05:09;101320.47;;;-2.54;79.64
65329;BME280;51941;52.210;5.158;2022-11-20T00:07:36;101328.63;;;-2.48;79.58
65329;BME280;51941;52.210;5.158;2022-11-20T00:10:05;101329.44;;;-2.58;79.83
65329;BME280;51941;52.210;5.158;2022-11-20T00:12:32;101354.44;;;-2.47;79.51
65329;BME280;51941;52.210;5.158;2022-11-20T00:14:59;101350.31;;;-2.49;80.02
65329;BME280;51941;52.210;5.158;2022-11-20T00:17:25;101341.88;;;-2.52;80.00
65329;BME280;51941;52.210;5.158;2022-11-20T00:19:52;101324.81;;;-2.54;79.93
65329;BME280;51941;52.210;5.158;2022-11-20T00:22:19;101334.63;;;-2.58;80.08
65329;BME280;51941;52.210;5.158;2022-11-20T00:24:46;101335.72;;;-2.60;80.03
65329;BME280;51941;52.210;5.158;2022-11-20T00:27:14;101333.38;;;-2.63;79.72
65329;BME280;51941;52.210;5.158;2022-11-20T00:29:40;101329.28;;;-2.66;80.02
65329;BME280;51941;52.210;5.158;2022-11-20T00:32:07;101340.59;;;-2.67;80.28
65329;BME280;51941;52.210;5.158;2022-11-20T00:34:34;101318.06;;;-2.76;80.02
65329;BME280;51941;52.210;5.158;2022-11-20T00:37:00;101321.94;;;-2.70;80.33
65329;BME280;51941;52.210;5.158;2022-11-20T00:39:27;101332.41;;;-2.72;80.28
65329;BME280;51941;52.210;5.158;2022-11-20T00:41:54;101337.47;;;-2.70;80.17
65329;BME280;51941;52.210;5.158;2022-11-20T00:44:22;101332.81;;;-2.67;80.43
65329;BME280;51941;52.210;5.158;2022-11-20T00:46:48;101328.78;;;-2.60;80.40
65329;BME280;51941;52.210;5.158;2022-11-20T00:49:15;101324.25;;;-2.58;80.33
65329;BME280;51941;52.210;5.158;2022-11-20T00:51:42;101310.47;;;-2.58;80.48
65329;BME280;51941;52.210;5.158;2022-11-20T00:54:09;101318.56;;;-2.52;80.58
65329;BME280;51941;52.210;5.158;2022-11-20T00:56:35;101321.03;;;-2.50;80.63
65329;BME280;51941;52.210;5.158;2022-11-20T00:59:02;101225.16;;;-3.09;80.49
65329;BME280;51941;52.210;5.158;2022-11-20T01:01:30;101324.28;;;-2.48;80.85
65329;BME280;51941;52.210;5.158;2022-11-20T01:03:59;101325.38;;;-2.50;80.69
65329;BME280;51941;52.210;5.158;2022-11-20T01:06:27;101324.69;;;-2.53;80.50
65329;BME280;51941;52.210;5.158;2022-11-20T01:08:56;101312.66;;;-2.63;80.35
65329;BME280;51941;52.210;5.158;2022-11-20T01:11:25;101319.06;;;-2.58;80.20
65329;BME280;51941;52.210;5.158;2022-11-20T01:13:53;101296.56;;;-2.76;80.46
65329;BME280;51941;52.210;5.158;2022-11-20T01:16:23;101318.91;;;-2.66;80.45
65329;BME280;51941;52.210;5.158;2022-11-20T01:18:53;101319.22;;;-2.69;80.38
65329;BME280;51941;52.210;5.158;2022-11-20T01:21:24;101252.97;;;-3.11;80.16
65329;BME280;51941;52.210;5.158;2022-11-20T01:23:51;101294.72;;;-2.95;80.34
65329;BME280;51941;52.210;5.158;2022-11-20T01:26:20;101291.31;;;-2.96;80.65
65329;BME280;51941;52.210;5.158;2022-11-20T01:28:47;101309.06;;;-2.81;80.67
65329;BME280;51941;52.210;5.158;2022-11-20T01:31:15;101311.13;;;-2.85;80.60
65329;BME280;51941;52.210;5.158;2022-11-20T01:33:43;101306.31;;;-2.90;80.58
65329;BME280;51941;52.210;5.158;2022-11-20T01:36:12;101298.56;;;-2.90;80.81
65329;BME280;51941;52.210;5.158;2022-11-20T01:38:39;101302.78;;;-2.88;81.11
65329;BME280;51941;52.210;5.158;2022-11-20T01:41:07;101276.56;;;-3.05;81.02
65329;BME280;51941;52.210;5.158;2022-11-20T01:43:34;101217.31;;;-3.38;80.91
65329;BME280;51941;52.210;5.158;2022-11-20T01:46:15;101300.75;;;-2.85;80.97
65329;BME280;51941;52.210;5.158;2022-11-20T01:48:50;101249.81;;;-3.15;81.18
65329;BME280;51941;52.210;5.158;2022-11-20T01:51:25;101307.56;;;-2.84;81.22
65329;BME280;51941;52.210;5.158;2022-11-20T01:53:59;101301.56;;;-2.84;81.13
65329;BME280;51941;52.210;5.158;2022-11-20T01:56:28;101277.66;;;-2.98;81.10
65329;BME280;51941;52.210;5.158;2022-11-20T01:58:58;101275.47;;;-3.02;81.05
65329;BME280;51941;52.210;5.158;2022-11-20T02:01:26;101297.34;;;-2.85;81.15
65329;BME280;51941;52.210;5.158;2022-11-20T02:03:53;101289.25;;;-2.92;81.06
65329;BME280;51941;52.210;5.158;2022-11-20T02:06:24;101294.59;;;-2.94;81.26
65329;BME280;51941;52.210;5.158;2022-11-20T02:08:52;101278.72;;;-3.10;81.23
65329;BME280;51941;52.210;5.158;2022-11-20T02:11:20;101295.38;;;-3.03;81.28
65329;BME280;51941;52.210;5.158;2022-11-20T02:13:47;101285.41;;;-3.07;81.24
65329;BME280;51941;52.210;5.158;2022-11-20T02:16:20;101280.47;;;-3.10;81.12
65329;BME280;51941;52.210;5.158;2022-11-20T02:18:47;101275.47;;;-3.12;81.24
65329;BME280;51941;52.210;5.158;2022-11-20T02:21:24;101279.00;;;-3.13;81.43
65329;BME280;51941;52.210;5.158;2022-11-20T02:24:13;101284.00;;;-3.21;81.43
65329;BME280;51941;52.210;5.158;2022-11-20T02:26:45;101251.09;;;-3.40;81.56
65329;BME280;51941;52.210;5.158;2022-11-20T02:29:15;101238.47;;;-3.54;81.73
65329;BME280;51941;52.210;5.158;2022-11-20T02:31:43;101279.31;;;-3.27;81.80
65329;BME280;51941;52.210;5.158;2022-11-20T02:34:10;101279.44;;;-3.29;81.76
65329;BME280;51941;52.210;5.158;2022-11-20T02:36:39;101177.19;;;-3.93;81.74
65329;BME280;51941;52.210;5.158;2022-11-20T02:39:07;101225.38;;;-3.62;81.80
65329;BME280;51941;52.210;5.158;2022-11-20T02:41:37;101272.09;;;-3.33;81.92
65329;BME280;51941;52.210;5.158;2022-11-20T02:44:05;101266.50;;;-3.38;82.00
65329;BME280;51941;52.210;5.158;2022-11-20T02:46:32;101265.81;;;-3.40;82.06
65329;BME280;51941;52.210;5.158;2022-11-20T02:49:00;101271.34;;;-3.45;82.00
65329;BME280;51941;52.210;5.158;2022-11-20T02:51:27;101245.53;;;-3.66;82.19
65329;BME280;51941;52.210;5.158;2022-11-20T02:53:54;101270.09;;;-3.50;82.03
65329;BME280;51941;52.210;5.158;2022-11-20T02:56:21;101271.19;;;-3.53;82.16
65329;BME280;51941;52.210;5.158;2022-11-20T02:58:49;101266.13;;;-3.54;81.99
65329;BME280;51941;52.210;5.158;2022-11-20T03:01:15;101263.41;;;-3.53;82.08
65329;BME280;51941;52.210;5.158;2022-11-20T03:03:42;101267.88;;;-3.55;82.15
65329;BME280;51941;52.210;5.158;2022-11-20T03:06:09;101256.75;;;-3.55;82.14
65329;BME280;51941;52.210;5.158;2022-11-20T03:08:36;101257.81;;;-3.58;82.05
65329;BME280;51941;52.210;5.158;2022-11-20T03:11:04;101256.28;;;-3.60;82.25
65329;BME280;51941;52.210;5.158;2022-11-20T03:13:31;101252.19;;;-3.63;82.00
65329;BME280;51941;52.210;5.158;2022-11-20T03:16:05;101241.31;;;-3.67;81.85
65329;BME280;51941;52.210;5.158;2022-11-20T03:18:32;101223.66;;;-3.82;81.89
65329;BME280;51941;52.210;5.158;2022-11-20T03:20:59;101247.16;;;-3.64;81.97
65329;BME280;51941;52.210;5.158;2022-11-20T03:23:25;101211.22;;;-3.88;81.73
65329;BME280;51941;52.210;5.158;2022-11-20T03:25:52;101247.41;;;-3.68;81.76
65329;BME280;51941;52.210;5.158;2022-11-20T03:28:19;101235.81;;;-3.73;81.76
65329;BME280;51941;52.210;5.158;2022-11-20T03:30:46;101241.00;;;-3.73;81.85
65329;BME280;51941;52.210;5.158;2022-11-20T03:33:14;101236.78;;;-3.74;81.67
65329;BME280;51941;52.210;5.158;2022-11-20T03:35:41;101237.59;;;-3.74;81.70
65329;BME280;51941;52.210;5.158;2022-11-20T03:38:07;101231.97;;;-3.79;81.67
65329;BME280;51941;52.210;5.158;2022-11-20T03:40:34;101232.25;;;-3.82;81.82
65329;BME280;51941;52.210;5.158;2022-11-20T03:43:01;101240.25;;;-3.85;81.67
65329;BME280;51941;52.210;5.158;2022-11-20T03:45:28;101211.56;;;-4.03;81.56
65329;BME280;51941;52.210;5.158;2022-11-20T03:47:55;101226.31;;;-3.93;81.57
65329;BME280;51941;52.210;5.158;2022-11-20T03:50:23;101201.84;;;-4.10;81.55
65329;BME280;51941;52.210;5.158;2022-11-20T03:52:49;101217.91;;;-4.07;81.62
65329;BME280;51941;52.210;5.158;2022-11-20T03:55:16;101231.03;;;-3.98;81.49
65329;BME280;51941;52.210;5.158;2022-11-20T03:57:43;101237.97;;;-3.99;81.45
65329;BME280;51941;52.210;5.158;2022-11-20T04:00:11;101227.88;;;-4.02;81.48
65329;BME280;51941;52.210;5.158;2022-11-20T04:02:38;101221.59;;;-4.09;81.35
65329;BME280;51941;52.210;5.158;2022-11-20T04:05:05;101222.66;;;-4.12;81.64
65329;BME280;51941;52.210;5.158;2022-11-20T04:07:34;101211.75;;;-4.15;81.55
65329;BME280;51941;52.210;5.158;2022-11-20T04:10:02;101209.03;;;-4.14;81.77
65329;BME280;51941;52.210;5.158;2022-11-20T04:12:32;101205.63;;;-4.14;81.49
65329;BME280;51941;52.210;5.158;2022-11-20T04:14:58;101199.75;;;-4.16;81.64
65329;BME280;51941;52.210;5.158;2022-11-20T04:17:25;101191.69;;;-4.23;81.55
65329;BME280;51941;52.210;5.158;2022-11-20T04:19:52;101190.06;;;-4.24;82.03
65329;BME280;51941;52.210;5.158;2022-11-20T04:22:18;101202.31;;;-4.26;82.05
65329;BME280;51941;52.210;5.158;2022-11-20T04:24:46;101197.69;;;-4.22;81.87
65329;BME280;51941;52.210;5.158;2022-11-20T04:27:13;101189.50;;;-4.27;81.83
65329;BME280;51941;52.210;5.158;2022-11-20T04:29:40;101165.59;;;-4.41;82.22
65329;BME280;51941;52.210;5.158;2022-11-20T04:32:07;101190.75;;;-4.22;82.06
65329;BME280;51941;52.210;5.158;2022-11-20T04:34:33;101159.88;;;-4.44;82.14
65329;BME280;51941;52.210;5.158;2022-11-20T04:37:00;101193.34;;;-4.22;82.13
65329;BME280;51941;52.210;5.158;2022-11-20T04:39:27;101193.44;;;-4.23;82.32
65329;BME280;51941;52.210;5.158;2022-11-20T04:41:55;101183.75;;;-4.31;82.19
65329;BME280;51941;52.210;5.158;2022-11-20T04:44:36;101200.78;;;-4.28;81.95
65329;BME280;51941;52.210;5.158;2022-11-20T04:47:02;101173.16;;;-4.49;81.94
65329;BME280;51941;52.210;5.158;2022-11-20T04:49:29;101200.06;;;-4.30;82.14
65329;BME280;51941;52.210;5.158;2022-11-20T04:51:56;101204.31;;;-4.29;81.93
65329;BME280;51941;52.210;5.158;2022-11-20T04:54:23;101196.66;;;-4.31;81.85
65329;BME280;51941;52.210;5.158;2022-11-20T04:56:50;101183.75;;;-4.31;81.85
65329;BME280;51941;52.210;5.158;2022-11-20T04:59:18;101183.88;;;-4.32;81.71
65329;BME280;51941;52.210;5.158;2022-11-20T05:01:45;101179.34;;;-4.40;81.47
65329;BME280;51941;52.210;5.158;2022-11-20T05:04:12;101182.38;;;-4.35;81.51
65329;BME280;51941;52.210;5.158;2022-11-20T05:06:38;101177.06;;;-4.33;81.79
65329;BME280;51941;52.210;5.158;2022-11-20T05:09:05;101169.59;;;-4.36;81.77
65329;BME280;51941;52.210;5.158;2022-11-20T05:11:32;101171.53;;;-4.29;82.04
65329;BME280;51941;52.210;5.158;2022-11-20T05:13:59;101163.78;;;-4.29;81.86
65329;BME280;51941;52.210;5.158;2022-11-20T05:16:27;101149.09;;;-4.28;81.77
65329;BME280;51941;52.210;5.158;2022-11-20T05:18:54;101153.31;;;-4.27;81.81
65329;BME280;51941;52.210;5.158;2022-11-20T05:21:21;101153.19;;;-4.26;81.80
65329;BME280;51941;52.210;5.158;2022-11-20T05:23:48;101145.44;;;-4.26;82.00
65329;BME280;51941;52.210;5.158;2022-11-20T05:26:17;101144.47;;;-4.25;81.84
65329;BME280;51941;52.210;5.158;2022-11-20T05:28:44;101141.06;;;-4.25;81.84
65329;BME280;51941;52.210;5.158;2022-11-20T05:31:15;101141.88;;;-4.25;81.94
65329;BME280;51941;52.210;5.158;2022-11-20T05:33:44;101148.03;;;-4.26;81.96
65329;BME280;51941;52.210;5.158;2022-11-20T05:36:12;101152.38;;;-4.26;81.90
65329;BME280;51941;52.210;5.158;2022-11-20T05:38:40;101150.97;;;-4.30;81.59
65329;BME280;51941;52.210;5.158;2022-11-20T05:41:09;101152.50;;;-4.28;81.51
65329;BME280;51941;52.210;5.158;2022-11-20T05:43:37;101157.91;;;-4.31;81.73
65329;BME280;51941;52.210;5.158;2022-11-20T05:46:05;101158.31;;;-4.35;81.51
65329;BME280;51941;52.210;5.158;2022-11-20T05:48:32;101124.59;;;-4.55;81.54
65329;BME280;51941;52.210;5.158;2022-11-20T05:51:03;101157.16;;;-4.43;81.52
65329;BME280;51941;52.210;5.158;2022-11-20T05:53:31;101160.31;;;-4.39;81.52
65329;BME280;51941;52.210;5.158;2022-11-20T05:55:59;101104.84;;;-4.76;80.93
65329;BME280;51941;52.210;5.158;2022-11-20T05:58:27;101175.22;;;-4.43;81.32
65329;BME280;51941;52.210;5.158;2022-11-20T06:00:54;101179.72;;;-4.45;81.03
65329;BME280;51941;52.210;5.158;2022-11-20T06:03:20;101181.72;;;-4.48;81.03
65329;BME280;51941;52.210;5.158;2022-11-20T06:05:47;101185.13;;;-4.48;81.11
65329;BME280;51941;52.210;5.158;2022-11-20T06:08:15;101186.06;;;-4.49;81.22
65329;BME280;51941;52.210;5.158;2022-11-20T06:10:42;101175.63;;;-4.47;81.17
65329;BME280;51941;52.210;5.158;2022-11-20T06:13:09;101177.50;;;-4.49;81.31
65329;BME280;51941;52.210;5.158;2022-11-20T06:15:36;101179.25;;;-4.50;81.34
65329;BME280;51941;52.210;5.158;2022-11-20T06:18:02;101174.78;;;-4.48;81.29
65329;BME280;51941;52.210;5.158;2022-11-20T06:20:29;101150.09;;;-4.61;81.39
65329;BME280;51941;52.210;5.158;2022-11-20T06:22:56;101162.00;;;-4.49;81.58
65329;BME280;51941;52.210;5.158;2022-11-20T06:25:24;101167.63;;;-4.44;81.40
65329;BME280;51941;52.210;5.158;2022-11-20T06:27:51;101173.81;;;-4.35;81.31
65329;BME280;51941;52.210;5.158;2022-11-20T06:30:18;101174.13;;;-4.29;81.47
65329;BME280;51941;52.210;5.158;2022-11-20T06:32:45;101172.22;;;-4.27;81.49
65329;BME280;51941;52.210;5.158;2022-11-20T06:35:11;101175.38;;;-4.23;81.38
65329;BME280;51941;52.210;5.158;2022-11-20T06:37:38;101149.03;;;-4.38;81.38
65329;BME280;51941;52.210;5.158;2022-11-20T06:40:06;101166.31;;;-4.18;81.36
65329;BME280;51941;52.210;5.158;2022-11-20T06:42:34;101152.75;;;-4.31;81.29
65329;BME280;51941;52.210;5.158;2022-11-20T06:45:01;101176.94;;;-4.11;81.11
65329;BME280;51941;52.210;5.158;2022-11-20T06:47:28;101160.75;;;-4.13;81.36
65329;BME280;51941;52.210;5.158;2022-11-20T06:49:54;101167.59;;;-4.03;81.37
65329;BME280;51941;52.210;5.158;2022-11-20T06:52:21;101162.97;;;-3.99;81.35
65329;BME280;51941;52.210;5.158;2022-11-20T06:54:48;101167.78;;;-3.94;81.35
65329;BME280;51941;52.210;5.158;2022-11-20T06:57:14;101157.56;;;-3.96;81.44
65329;BME280;51941;52.210;5.158;2022-11-20T06:59:42;101145.91;;;-3.90;81.18
65329;BME280;51941;52.210;5.158;2022-11-20T07:02:10;101089.09;;;-4.32;81.01
65329;BME280;51941;52.210;5.158;2022-11-20T07:04:37;101155.28;;;-3.89;81.12
65329;BME280;51941;52.210;5.158;2022-11-20T07:07:04;101151.88;;;-3.90;81.06
65329;BME280;51941;52.210;5.158;2022-11-20T07:09:31;101156.78;;;-3.87;80.83
65329;BME280;51941;52.210;5.158;2022-11-20T07:11:58;101158.44;;;-3.86;81.00
65329;BME280;51941;52.210;5.158;2022-11-20T07:14:25;101116.44;;;-4.09;81.07
65329;BME280;51941;52.210;5.158;2022-11-20T07:16:53;101143.72;;;-3.85;81.09
65329;BME280;51941;52.210;5.158;2022-11-20T07:19:20;101134.09;;;-3.83;81.04
65329;BME280;51941;52.210;5.158;2022-11-20T07:21:47;101131.09;;;-3.79;80.97
65329;BME280;51941;52.210;5.158;2022-11-20T07:24:13;101130.72;;;-3.74;81.14
65329;BME280;51941;52.210;5.158;2022-11-20T07:26:40;101098.66;;;-3.92;81.48
65329;BME280;51941;52.210;5.158;2022-11-20T07:29:07;101130.59;;;-3.63;81.21
65329;BME280;51941;52.210;5.158;2022-11-20T07:31:34;101125.88;;;-3.58;81.56
65329;BME280;51941;52.210;5.158;2022-11-20T07:34:02;101126.72;;;-3.48;81.36
65329;BME280;51941;52.210;5.158;2022-11-20T07:36:29;101130.53;;;-3.42;81.74
65329;BME280;51941;52.210;5.158;2022-11-20T07:38:56;101123.59;;;-3.42;81.55
65329;BME280;51941;52.210;5.158;2022-11-20T07:41:22;101132.06;;;-3.30;81.47
65329;BME280;51941;52.210;5.158;2022-11-20T07:43:49;101148.28;;;-3.18;81.49
65329;BME280;51941;52.210;5.158;2022-11-20T07:46:16;101146.66;;;-3.10;81.72
65329;BME280;51941;52.210;5.158;2022-11-20T07:48:43;101150.91;;;-2.99;81.74
65329;BME280;51941;52.210;5.158;2022-11-20T07:51:11;101146.97;;;-2.94;81.92
65329;BME280;51941;52.210;5.158;2022-11-20T07:53:38;101142.19;;;-2.88;81.71
65329;BME280;51941;52.210;5.158;2022-11-20T07:56:06;101146.69;;;-2.71;81.65
65329;BME280;51941;52.210;5.158;2022-11-20T07:58:32;101142.19;;;-2.60;81.67
65329;BME280;51941;52.210;5.158;2022-11-20T08:01:03;101143.97;;;-2.50;81.54
65329;BME280;51941;52.210;5.158;2022-11-20T08:03:29;101079.72;;;-2.76;81.41
65329;BME280;51941;52.210;5.158;2022-11-20T08:05:58;101124.28;;;-2.34;81.32
65329;BME280;51941;52.210;5.158;2022-11-20T08:08:26;101127.81;;;-2.25;81.20
65329;BME280;51941;52.210;5.158;2022-11-20T08:10:53;101123.72;;;-2.28;81.11
65329;BME280;51941;52.210;5.158;2022-11-20T08:13:41;101126.25;;;-2.08;80.99
65329;BME280;51941;52.210;5.158;2022-11-20T08:16:25;101121.88;;;-1.98;81.00
65329;BME280;51941;52.210;5.158;2022-11-20T08:18:52;101119.06;;;-1.87;80.76
65329;BME280;51941;52.210;5.158;2022-11-20T08:21:18;101105.41;;;-1.80;80.63
65329;BME280;51941;52.210;5.158;2022-11-20T08:23:46;101113.56;;;-1.74;80.06
65329;BME280;51941;52.210;5.158;2022-11-20T08:26:13;101111.34;;;-1.69;80.00
65329;BME280;51941;52.210;5.158;2022-11-20T08:28:40;101078.78;;;-1.82;79.83
65329;BME280;51941;52.210;5.158;2022-11-20T08:31:07;101115.66;;;-1.60;79.83
65329;BME280;51941;52.210;5.158;2022-11-20T08:33:35;101123.84;;;-1.55;79.76
65329;BME280;51941;52.210;5.158;2022-11-20T08:36:03;101114.28;;;-1.55;79.58
65329;BME280;51941;52.210;5.158;2022-11-20T08:38:30;101118.31;;;-1.43;79.37
65329;BME280;51941;52.210;5.158;2022-11-20T08:40:59;101120.63;;;-1.40;79.16
65329;BME280;51941;52.210;5.158;2022-11-20T08:43:44;101111.59;;;-1.35;78.96
65329;BME280;51941;52.210;5.158;2022-11-20T08:46:11;101101.78;;;-1.24;78.80
65329;BME280;51941;52.210;5.158;2022-11-20T08:48:37;101107.19;;;-1.17;78.69
65329;BME280;51941;52.210;5.158;2022-11-20T08:51:05;101120.50;;;-1.20;78.50
65329;BME280;51941;52.210;5.158;2022-11-20T08:53:32;101117.69;;;-1.09;78.48
65329;BME280;51941;52.210;5.158;2022-11-20T08:56:00;101108.63;;;-1.05;78.44
65329;BME280;51941;52.210;5.158;2022-11-20T08:58:27;101093.50;;;-1.10;78.27
65329;BME280;51941;52.210;5.158;2022-11-20T09:00:54;101130.16;;;-0.77;78.38
65329;BME280;51941;52.210;5.158;2022-11-20T09:03:21;101125.97;;;-0.70;78.40
65329;BME280;51941;52.210;5.158;2022-11-20T09:05:48;101128.66;;;-0.62;78.24
65329;BME280;51941;52.210;5.158;2022-11-20T09:08:15;101123.16;;;-0.59;78.16
65329;BME280;51941;52.210;5.158;2022-11-20T09:10:42;101110.66;;;-0.55;78.24
65329;BME280;51941;52.210;5.158;2022-11-20T09:13:10;101020.81;;;-1.02;78.17
65329;BME280;51941;52.210;5.158;2022-11-20T09:15:37;101096.91;;;-0.48;78.22
65329;BME280;51941;52.210;5.158;2022-11-20T09:18:04;101089.59;;;-0.44;78.24
65329;BME280;51941;52.210;5.158;2022-11-20T09:20:31;101033.56;;;-0.65;78.04
65329;BME280;51941;52.210;5.158;2022-11-20T09:22:57;101086.81;;;-0.25;77.86
65329;BME280;51941;52.210;5.158;2022-11-20T09:25:24;101076.34;;;-0.33;77.64
65329;BME280;51941;52.210;5.158;2022-11-20T09:27:55;101077.75;;;-0.21;77.58
65329;BME280;51941;52.210;5.158;2022-11-20T09:30:23;101075.47;;;-0.16;77.36
65329;BME280;51941;52.210;5.158;2022-11-20T09:32:49;101073.69;;;-0.15;77.37
65329;BME280;51941;52.210;5.158;2022-11-20T09:35:16;101058.13;;;-0.07;77.65
65329;BME280;51941;52.210;5.158;2022-11-20T09:37:46;101055.41;;;0.02;77.45
65329;BME280;51941;52.210;5.158;2022-11-20T09:40:23;101054.47;;;0.11;77.60
65329;BME280;51941;52.210;5.158;2022-11-20T09:42:55;101063.75;;;0.14;77.48
65329;BME280;51941;52.210;5.158;2022-11-20T09:45:35;101067.97;;;0.23;77.30
65329;BME280;51941;52.210;5.158;2022-11-20T09:48:26;101052.09;;;0.34;77.20
65329;BME280;51941;52.210;5.158;2022-11-20T09:51:05;101056.34;;;0.43;77.04
65329;BME280;51941;52.210;5.158;2022-11-20T09:53:39;101051.81;;;0.54;77.03
65329;BME280;51941;52.210;5.158;2022-11-20T09:56:09;101056.88;;;0.63;77.24
65329;BME280;51941;52.210;5.158;2022-11-20T09:58:40;101050.03;;;0.70;76.95
65329;BME280;51941;52.210;5.158;2022-11-20T10:01:12;101040.94;;;0.74;76.79
65329;BME280;51941;52.210;5.158;2022-11-20T10:03:53;101041.09;;;0.81;76.70
65329;BME280;51941;52.210;5.158;2022-11-20T10:06:26;101048.59;;;0.84;76.30
65329;BME280;51941;52.210;5.158;2022-11-20T10:09:01;101024.34;;;0.83;76.25
65329;BME280;51941;52.210;5.158;2022-11-20T10:11:36;101039.47;;;1.04;76.44
65329;BME280;51941;52.210;5.158;2022-11-20T10:14:12;101034.59;;;1.09;76.25
65329;BME280;51941;52.210;5.158;2022-11-20T10:16:49;101025.00;;;1.10;76.47
65329;BME280;51941;52.210;5.158;2022-11-20T10:22:26;100997.44;;;1.07;75.89
65329;BME280;51941;52.210;5.158;2022-11-20T10:25:00;101013.06;;;1.23;75.91
65329;BME280;51941;52.210;5.158;2022-11-20T10:27:43;101006.88;;;1.24;75.64
65329;BME280;51941;52.210;5.158;2022-11-20T10:30:13;100963.88;;;1.12;76.12
65329;BME280;51941;52.210;5.158;2022-11-20T10:32:43;100962.72;;;1.23;75.95
65329;BME280;51941;52.210;5.158;2022-11-20T10:35:20;100966.25;;;1.38;75.99
65329;BME280;51941;52.210;5.158;2022-11-20T10:37:53;100972.88;;;1.57;75.36
65329;BME280;51941;52.210;5.158;2022-11-20T10:40:27;100933.34;;;1.37;74.81
65329;BME280;51941;52.210;5.158;2022-11-20T10:42:57;100968.28;;;1.67;75.31
65329;BME280;51941;52.210;5.158;2022-11-20T10:48:15;100919.09;;;1.48;74.85
65329;BME280;51941;52.210;5.158;2022-11-20T10:50:53;100941.84;;;1.70;75.05
65329;BME280;51941;52.210;5.158;2022-11-20T10:53:33;100958.28;;;1.79;74.75
65329;BME280;51941;52.210;5.158;2022-11-20T10:56:11;100951.72;;;1.83;74.62
65329;BME280;51941;52.210;5.158;2022-11-20T10:58:47;100928.28;;;1.75;74.59
65329;BME280;51941;52.210;5.158;2022-11-20T11:01:20;100933.25;;;1.92;74.73
65329;BME280;51941;52.210;5.158;2022-11-20T11:03:50;100901.34;;;1.82;75.12
65329;BME280;51941;52.210;5.158;2022-11-20T11:06:22;100925.09;;;1.95;74.70
65329;BME280;51941;52.210;5.158;2022-11-20T11:08:55;100913.03;;;1.94;74.43
65329;BME280;51941;52.210;5.158;2022-11-20T11:11:26;100915.28;;;1.97;74.64
65329;BME280;51941;52.210;5.158;2022-11-20T11:14:04;100908.28;;;1.98;74.17
65329;BME280;51941;52.210;5.158;2022-11-20T11:16:31;100905.63;;;2.06;74.50
65329;BME280;51941;52.210;5.158;2022-11-20T11:19:05;100906.38;;;2.15;74.58
65329;BME280;51941;52.210;5.158;2022-11-20T11:21:32;100893.25;;;2.23;74.70
65329;BME280;51941;52.210;5.158;2022-11-20T11:24:00;100896.94;;;2.28;74.37
65329;BME280;51941;52.210;5.158;2022-11-20T11:26:28;100885.41;;;2.23;74.21
65329;BME280;51941;52.210;5.158;2022-11-20T11:28:56;100878.59;;;2.36;74.41
65329;BME280;51941;52.210;5.158;2022-11-20T11:31:24;100876.47;;;2.40;74.39
65329;BME280;51941;52.210;5.158;2022-11-20T11:33:51;100877.91;;;2.43;74.16
65329;BME280;51941;52.210;5.158;2022-11-20T11:36:21;100863.84;;;2.44;74.37
65329;BME280;51941;52.210;5.158;2022-11-20T11:38:51;100859.25;;;2.46;74.50
65329;BME280;51941;52.210;5.158;2022-11-20T11:41:22;100862.34;;;2.49;74.55
65329;BME280;51941;52.210;5.158;2022-11-20T11:43:52;100852.53;;;2.51;74.77
65329;BME280;51941;52.210;5.158;2022-11-20T11:46:39;100848.28;;;2.50;74.86
65329;BME280;51941;52.210;5.158;2022-11-20T11:49:16;100846.94;;;2.54;75.08
65329;BME280;51941;52.210;5.158;2022-11-20T11:51:59;100844.16;;;2.56;75.34
65329;BME280;51941;52.210;5.158;2022-11-20T11:54:32;100833.22;;;2.52;75.71
65329;BME280;51941;52.210;5.158;2022-11-20T11:57:05;100839.28;;;2.53;75.84
65329;BME280;51941;52.210;5.158;2022-11-20T11:59:44;100835.84;;;2.52;75.91
65329;BME280;51941;52.210;5.158;2022-11-20T12:02:24;100827.03;;;2.53;76.46
65329;BME280;51941;52.210;5.158;2022-11-20T12:04:57;100796.81;;;2.36;76.56
65329;BME280;51941;52.210;5.158;2022-11-20T12:07:38;100819.81;;;2.55;76.82
65329;BME280;51941;52.210;5.158;2022-11-20T12:10:16;100820.47;;;2.57;76.97
65329;BME280;51941;52.210;5.158;2022-11-20T12:12:50;100776.56;;;2.38;77.16
65329;BME280;51941;52.210;5.158;2022-11-20T12:15:26;100810.09;;;2.64;77.71
65329;BME280;51941;52.210;5.158;2022-11-20T12:17:55;100759.44;;;2.35;77.88
65329;BME280;51941;52.210;5.158;2022-11-20T12:20:26;100807.94;;;2.67;77.97
65329;BME280;51941;52.210;5.158;2022-11-20T12:23:01;100802.56;;;2.69;78.05
65329;BME280;51941;52.210;5.158;2022-11-20T12:25:34;100793.69;;;2.70;78.25
65329;BME280;51941;52.210;5.158;2022-11-20T12:28:24;100762.50;;;2.54;78.26
65329;BME280;51941;52.210;5.158;2022-11-20T12:31:03;100781.19;;;2.65;78.66
65329;BME280;51941;52.210;5.158;2022-11-20T12:33:50;100776.94;;;2.64;78.71
65329;BME280;51941;52.210;5.158;2022-11-20T12:36:29;100775.78;;;2.67;78.96
65329;BME280;51941;52.210;5.158;2022-11-20T12:39:15;100768.13;;;2.65;79.32
65329;BME280;51941;52.210;5.158;2022-11-20T12:42:10;100766.75;;;2.69;79.16
65329;BME280;51941;52.210;5.158;2022-11-20T12:45:10;100760.09;;;2.67;79.82
65329;BME280;51941;52.210;5.158;2022-11-20T12:47:52;100754.50;;;2.70;80.02
65329;BME280;51941;52.210;5.158;2022-11-20T12:50:28;100746.84;;;2.68;80.18
65329;BME280;51941;52.210;5.158;2022-11-20T12:53:04;100729.56;;;2.67;80.32
65329;BME280;51941;52.210;5.158;2022-11-20T12:55:40;100716.47;;;2.67;80.31
65329;BME280;51941;52.210;5.158;2022-11-20T12:58:13;100710.16;;;2.62;81.06
65329;BME280;51941;52.210;5.158;2022-11-20T13:00:48;100692.78;;;2.54;81.14
65329;BME280;51941;52.210;5.158;2022-11-20T13:03:40;100710.28;;;2.68;81.03
65329;BME280;51941;52.210;5.158;2022-11-20T13:06:14;100698.72;;;2.63;81.46
65329;BME280;51941;52.210;5.158;2022-11-20T13:08:47;100701.97;;;2.65;81.23
65329;BME280;51941;52.210;5.158;2022-11-20T13:11:19;100715.84;;;2.65;81.52